Tobias, Nebraska
Current Conditions -  °F | °C
As of 12:55 AM on Friday 28 Nov 2014 (Local Time) from KHJH Reporting Station
Clear Clear  
Wind Chill: 24°   Ceiling: Unl
Heat Index: 32°   Visibility: 10mi
Dew Point: 18°   Wind: 9mph
Humidity: 56%   Direction: 170°S
Pressure: 30.02"   Gusts: NA
Location:  40.42°N, 97.34°W
Report Text: KHJH 280655Z AUTO 17008KT 10SM CLR 00/M08 A3002 RMK AO2 T10011080
Loading
Personal Weather Stations






























Interactive Weather Map New forecast layout! Learn more

10-Day Weather Forecast

Advertisements
Track Severe Weather on mobile